Time;durP1;ratioP1;P1;durP2;ratioP2;P2;SDS_P1;SDS_P2;PMS_P1;PMS_P2;Temp;Humidity;BMP_temperature;BMP_pressure;BME280_temperature;BME280_humidity;BME280_pressure;Samples;Min_cycle;Max_cycle;Signal;HPM_P1;HPM_P2
2022/09/10 00:01:09;;;;;;;13.18;9.70;;;15.80;99.90;;;;;;5017724;28;20462;-61
2022/09/10 00:03:35;;;;;;;17.67;10.23;;;15.80;99.90;;;;;;5014820;28;20079;-61
2022/09/10 00:06:03;;;;;;;14.45;10.07;;;15.80;99.90;;;;;;5017951;28;20284;-61
2022/09/10 00:08:30;;;;;;;13.18;10.50;;;15.80;99.90;;;;;;5007073;28;20051;-62
2022/09/10 00:10:56;;;;;;;13.85;10.68;;;15.80;99.90;;;;;;5016133;28;20059;-63
2022/09/10 00:13:22;;;;;;;15.45;10.75;;;15.80;99.90;;;;;;5017079;28;20059;-62
2022/09/10 00:15:51;;;;;;;14.05;10.38;;;15.80;99.90;;;;;;5003935;28;20059;-63
2022/09/10 00:18:19;;;;;;;13.52;10.82;;;15.80;99.90;;;;;;5006913;28;20195;-63
2022/09/10 00:20:51;;;;;;;13.18;10.77;;;15.80;99.90;;;;;;5018587;28;20131;-61
2022/09/10 00:23:19;;;;;;;16.30;11.15;;;15.80;99.90;;;;;;5019299;28;20053;-61
2022/09/10 00:25:45;;;;;;;15.93;10.25;;;15.80;99.90;;;;;;5000220;28;20126;-62
2022/09/10 00:28:11;;;;;;;13.98;11.38;;;15.80;99.90;;;;;;5016833;28;20041;-62
2022/09/10 00:30:46;;;;;;;14.82;11.30;;;15.80;99.90;;;;;;5014687;28;20064;-61
2022/09/10 00:33:14;;;;;;;15.73;11.02;;;15.90;99.90;;;;;;5005243;28;20411;-61
2022/09/10 00:35:43;;;;;;;16.58;11.70;;;15.90;99.90;;;;;;5016260;28;20384;-61
2022/09/10 00:38:11;;;;;;;17.40;11.55;;;15.80;99.90;;;;;;4999257;28;20083;-61
2022/09/10 00:40:37;;;;;;;14.75;11.40;;;15.80;99.90;;;;;;5018465;28;20045;-60
2022/09/10 00:43:11;;;;;;;15.82;11.77;;;15.80;99.90;;;;;;5015670;28;20049;-61
2022/09/10 00:45:37;;;;;;;14.57;11.98;;;15.80;99.90;;;;;;5014270;28;20049;-61
2022/09/10 00:48:27;;;;;;;14.40;11.32;;;15.80;99.90;;;;;;4990170;28;20065;-62
2022/09/10 00:50:54;;;;;;;16.88;11.80;;;15.90;99.90;;;;;;5009226;28;20423;-60
2022/09/10 00:53:27;;;;;;;19.50;11.55;;;15.90;99.90;;;;;;5014368;28;20557;-60
2022/09/10 00:55:56;;;;;;;15.30;12.10;;;15.80;99.90;;;;;;5020058;28;20224;-61
2022/09/10 00:58:25;;;;;;;13.75;10.98;;;15.80;99.90;;;;;;5011986;28;20080;-63
2022/09/10 01:00:57;;;;;;;18.58;11.63;;;15.80;99.90;;;;;;5006297;28;20049;-62
2022/09/10 01:03:23;;;;;;;15.75;11.88;;;15.90;99.90;;;;;;5015136;28;20041;-61
2022/09/10 01:05:50;;;;;;;14.52;12.10;;;15.80;99.90;;;;;;5022042;28;20099;-60
2022/09/10 01:08:17;;;;;;;16.65;12.05;;;15.90;99.90;;;;;;5003912;28;20037;-61
2022/09/10 01:11:10;;;;;;;20.33;13.35;;;15.80;99.90;;;;;;5015712;28;20102;-60
2022/09/10 01:13:48;;;;;;;15.48;12.90;;;15.90;99.90;;;;;;5018101;28;20519;-60
2022/09/10 01:16:13;;;;;;;17.50;12.65;;;15.80;99.90;;;;;;5020012;28;20743;-63
2022/09/10 01:19:08;;;;;;;19.52;13.93;;;15.80;99.90;;;;;;5020003;28;20041;-62
2022/09/10 01:21:53;;;;;;;18.25;13.38;;;15.80;99.90;;;;;;5024773;28;20088;-61
2022/09/10 01:24:49;;;;;;;17.02;12.93;;;15.80;99.90;;;;;;5026106;28;20045;-63
2022/09/10 01:27:35;;;;;;;17.35;13.40;;;15.80;99.90;;;;;;5025232;28;20052;-61
2022/09/10 01:30:09;;;;;;;16.98;13.25;;;15.80;99.90;;;;;;5021238;28;20518;-61
2022/09/10 01:32:43;;;;;;;19.33;13.70;;;15.80;99.90;;;;;;4997965;28;20573;-62
2022/09/10 01:35:15;;;;;;;24.77;14.50;;;15.80;99.90;;;;;;5004687;28;20041;-63
2022/09/10 01:37:50;;;;;;;17.42;13.73;;;15.80;99.90;;;;;;4991142;28;20048;-63
2022/09/10 01:40:17;;;;;;;21.80;14.77;;;15.80;99.90;;;;;;4994803;28;20068;-63
2022/09/10 01:42:44;;;;;;;23.15;15.68;;;15.80;99.90;;;;;;5011651;28;20045;-63
2022/09/10 01:45:13;;;;;;;20.65;15.38;;;15.80;99.90;;;;;;4998600;28;20053;-61
2022/09/10 01:47:41;;;;;;;20.42;14.13;;;15.80;99.90;;;;;;5018263;28;20119;-60
2022/09/10 01:50:43;;;;;;;18.67;14.73;;;15.80;99.90;;;;;;5018988;28;20098;-63
2022/09/10 01:53:29;;;;;;;24.02;15.57;;;15.80;99.90;;;;;;4963454;28;20092;-61
2022/09/10 01:56:23;;;;;;;19.10;14.07;;;15.80;99.90;;;;;;5016041;28;20098;-61
2022/09/10 01:58:49;;;;;;;24.92;14.52;;;15.80;99.90;;;;;;5014622;28;20112;-60
2022/09/10 02:01:24;;;;;;;21.70;15.93;;;15.80;99.90;;;;;;5019356;28;20060;-62
2022/09/10 02:03:55;;;;;;;20.38;15.55;;;15.80;99.90;;;;;;5013294;28;20047;-62
2022/09/10 02:06:27;;;;;;;21.58;15.40;;;15.80;99.90;;;;;;5002362;28;20823;-61
2022/09/10 02:08:55;;;;;;;24.33;14.98;;;15.80;99.90;;;;;;5021525;28;20049;-63
2022/09/10 02:11:21;;;;;;;27.35;17.40;;;15.80;99.90;;;;;;5024030;28;20888;-62
2022/09/10 02:13:48;;;;;;;25.25;17.33;;;15.80;99.90;;;;;;5023565;28;20071;-62
2022/09/10 02:16:25;;;;;;;23.13;17.48;;;15.80;99.90;;;;;;5021866;28;20052;-63
2022/09/10 02:18:51;;;;;;;26.85;18.08;;;15.80;99.90;;;;;;5023328;28;20402;-63
2022/09/10 02:21:17;;;;;;;23.13;18.02;;;15.80;99.90;;;;;;5029796;28;20045;-60
2022/09/10 02:23:48;;;;;;;27.05;18.45;;;15.80;99.90;;;;;;5026660;28;20048;-61
2022/09/10 02:26:14;;;;;;;25.38;18.05;;;15.80;99.90;;;;;;5024092;28;20463;-62
2022/09/10 02:28:47;;;;;;;28.90;18.45;;;15.80;99.90;;;;;;5023206;28;20052;-62
2022/09/10 02:31:13;;;;;;;26.42;18.67;;;15.70;99.90;;;;;;5009721;28;20055;-62
2022/09/10 02:33:39;;;;;;;27.02;18.85;;;15.70;99.90;;;;;;5021150;28;20620;-61
2022/09/10 02:36:05;;;;;;;26.00;19.38;;;15.70;99.90;;;;;;5007157;28;20041;-63
2022/09/10 02:38:31;;;;;;;25.20;19.17;;;15.80;99.90;;;;;;5005602;28;20055;-62
2022/09/10 02:40:58;;;;;;;37.92;21.73;;;15.70;99.90;;;;;;5022887;28;20056;-63
2022/09/10 02:43:27;;;;;;;25.02;19.27;;;15.70;99.90;;;;;;5012511;28;20052;-61
2022/09/10 02:45:57;;;;;;;33.00;21.05;;;15.70;99.90;;;;;;5001279;28;20595;-61
2022/09/10 02:48:25;;;;;;;30.92;21.08;;;15.70;99.90;;;;;;5026176;28;20073;-61
2022/09/10 02:50:51;;;;;;;29.98;21.73;;;15.70;99.90;;;;;;5048564;28;20557;-62
2022/09/10 02:53:17;;;;;;;33.00;21.85;;;15.70;99.90;;;;;;5012035;28;20071;-60
2022/09/10 02:55:45;;;;;;;34.58;22.13;;;15.70;99.90;;;;;;5031933;28;20048;-61
2022/09/10 02:58:12;;;;;;;34.92;23.02;;;15.70;99.90;;;;;;5017597;28;20127;-63
2022/09/10 03:00:38;;;;;;;28.67;21.85;;;15.70;99.90;;;;;;5039709;28;20049;-62
2022/09/10 03:03:05;;;;;;;31.25;22.90;;;15.70;99.90;;;;;;5025080;28;20367;-62
2022/09/10 03:05:31;;;;;;;33.22;22.58;;;15.70;99.90;;;;;;5024492;28;20574;-62
2022/09/10 03:07:59;;;;;;;29.40;22.60;;;15.70;99.90;;;;;;5008522;28;20045;-61
2022/09/10 03:10:24;;;;;;;29.50;21.50;;;15.70;99.90;;;;;;5013310;28;20136;-61
2022/09/10 03:12:51;;;;;;;30.33;23.02;;;15.70;99.90;;;;;;5023933;28;20044;-62
2022/09/10 03:15:19;;;;;;;30.58;22.63;;;15.70;99.90;;;;;;5018432;28;20051;-63
2022/09/10 03:17:46;;;;;;;28.25;22.25;;;15.70;99.90;;;;;;5014270;28;21249;-61
2022/09/10 03:20:12;;;;;;;28.77;20.85;;;15.70;99.90;;;;;;5012278;28;20105;-61
2022/09/10 03:22:38;;;;;;;30.50;21.85;;;15.70;99.90;;;;;;5013315;28;20045;-62
2022/09/10 03:25:05;;;;;;;30.48;21.67;;;15.70;99.90;;;;;;5009042;28;20809;-62
2022/09/10 03:27:31;;;;;;;32.92;21.67;;;15.70;99.90;;;;;;5021549;28;20052;-61
2022/09/10 03:29:57;;;;;;;29.98;21.38;;;15.70;99.90;;;;;;4991479;28;20052;-62
2022/09/10 03:32:23;;;;;;;29.77;21.58;;;15.70;99.90;;;;;;4991942;28;20138;-62
2022/09/10 03:34:49;;;;;;;32.70;21.33;;;15.70;99.90;;;;;;5005057;28;20040;-62
2022/09/10 03:37:15;;;;;;;31.67;22.85;;;15.70;99.90;;;;;;4980148;28;20463;-61
2022/09/10 03:39:42;;;;;;;31.92;22.65;;;15.70;99.90;;;;;;5005330;28;20494;-60
2022/09/10 03:42:08;;;;;;;38.70;25.48;;;15.60;99.90;;;;;;5007279;28;20483;-63
2022/09/10 03:44:34;;;;;;;31.13;23.02;;;15.70;99.90;;;;;;4993690;28;20068;-62
2022/09/10 03:47:00;;;;;;;34.25;23.50;;;15.60;99.90;;;;;;5006183;28;20470;-61
2022/09/10 03:49:26;;;;;;;35.22;24.50;;;15.70;99.90;;;;;;5010536;28;20056;-63
2022/09/10 03:51:53;;;;;;;37.17;25.50;;;15.70;99.90;;;;;;5025189;28;20485;-63
2022/09/10 03:54:19;;;;;;;32.83;24.00;;;15.70;99.90;;;;;;5024201;28;20072;-64
2022/09/10 03:56:45;;;;;;;35.08;24.23;;;15.70;99.90;;;;;;5021145;28;20048;-63
2022/09/10 03:59:12;;;;;;;33.83;24.50;;;15.60;99.90;;;;;;5024982;28;20433;-62
2022/09/10 04:01:39;;;;;;;34.60;24.95;;;15.60;99.90;;;;;;5022819;28;20044;-61
2022/09/10 04:04:05;;;;;;;35.78;25.17;;;15.60;99.90;;;;;;5015614;28;20161;-60
2022/09/10 04:06:34;;;;;;;33.53;24.85;;;15.60;99.90;;;;;;5009957;28;20123;-62
2022/09/10 04:09:00;;;;;;;32.42;23.77;;;15.60;99.90;;;;;;5024584;28;20162;-62
2022/09/10 04:11:27;;;;;;;33.47;23.10;;;15.60;99.90;;;;;;5001443;28;20123;-62
2022/09/10 04:13:54;;;;;;;34.58;24.17;;;15.60;99.90;;;;;;5006144;28;20049;-62
2022/09/10 04:16:21;;;;;;;33.88;24.45;;;15.60;99.90;;;;;;5010704;28;20041;-60
2022/09/10 04:18:46;;;;;;;31.50;22.50;;;15.60;99.90;;;;;;5011266;28;20045;-60
2022/09/10 04:21:12;;;;;;;31.40;22.38;;;15.60;99.90;;;;;;5005541;28;20114;-61
2022/09/10 04:23:41;;;;;;;34.50;25.27;;;15.70;99.90;;;;;;5027979;28;20037;-63
2022/09/10 04:26:13;;;;;;;34.30;24.13;;;15.60;99.90;;;;;;5018184;28;20055;-60
2022/09/10 04:28:39;;;;;;;35.55;23.50;;;15.60;99.90;;;;;;5030835;28;20114;-62
2022/09/10 04:31:05;;;;;;;35.95;24.67;;;15.60;99.90;;;;;;5027702;28;20129;-62
2022/09/10 04:33:32;;;;;;;35.40;24.42;;;15.60;99.90;;;;;;5032949;28;20052;-61
2022/09/10 04:36:01;;;;;;;34.63;24.42;;;15.60;99.90;;;;;;5025144;28;20048;-61
2022/09/10 04:38:31;;;;;;;36.28;25.75;;;15.60;99.90;;;;;;5024305;28;20055;-62
2022/09/10 04:40:59;;;;;;;36.92;25.38;;;15.60;99.90;;;;;;5005230;28;20114;-61
2022/09/10 04:43:26;;;;;;;39.40;25.95;;;15.60;99.90;;;;;;5005710;28;20056;-62
2022/09/10 04:45:54;;;;;;;36.03;25.33;;;15.60;99.90;;;;;;5007631;28;20060;-61
2022/09/10 04:48:21;;;;;;;39.72;26.63;;;15.60;99.90;;;;;;5019993;28;20760;-60
2022/09/10 04:50:47;;;;;;;35.20;25.52;;;15.60;99.90;;;;;;5003948;28;20048;-63
2022/09/10 04:53:14;;;;;;;37.35;26.33;;;15.60;99.90;;;;;;5012985;28;20040;-63
2022/09/10 04:55:43;;;;;;;38.20;26.05;;;15.70;99.90;;;;;;5031669;28;20045;-61
2022/09/10 04:58:09;;;;;;;32.75;24.95;;;15.70;99.90;;;;;;5019001;28;20376;-60
2022/09/10 05:00:35;;;;;;;36.22;24.52;;;15.70;99.90;;;;;;5004253;28;20044;-63
2022/09/10 05:03:03;;;;;;;37.85;26.23;;;15.70;99.90;;;;;;5020881;28;20475;-60
2022/09/10 05:05:29;;;;;;;40.78;26.13;;;15.70;99.90;;;;;;5020116;28;20558;-63
2022/09/10 05:07:55;;;;;;;32.70;24.33;;;15.70;99.90;;;;;;5001460;28;20052;-60
2022/09/10 05:10:23;;;;;;;35.60;23.88;;;15.70;99.90;;;;;;5008188;28;21040;-62
2022/09/10 05:12:49;;;;;;;36.95;24.77;;;15.70;99.90;;;;;;5022488;28;20063;-61
2022/09/10 05:15:15;;;;;;;34.00;23.48;;;15.70;99.90;;;;;;5012536;28;20044;-63
2022/09/10 05:17:40;;;;;;;35.65;23.52;;;15.70;99.90;;;;;;5026908;28;20125;-63
2022/09/10 05:20:07;;;;;;;35.08;24.48;;;15.70;99.90;;;;;;5016872;28;20433;-62
2022/09/10 05:22:35;;;;;;;32.33;24.20;;;15.70;99.90;;;;;;4987115;28;20358;-60
2022/09/10 05:25:02;;;;;;;39.63;25.02;;;15.80;99.90;;;;;;5002618;28;20088;-61
2022/09/10 05:27:29;;;;;;;37.22;23.20;;;15.80;99.90;;;;;;5003794;28;20216;-61
2022/09/10 05:29:56;;;;;;;32.40;23.98;;;15.80;99.90;;;;;;5023653;28;20633;-61
2022/09/10 05:32:22;;;;;;;32.35;23.75;;;15.80;99.90;;;;;;5001749;28;20087;-61
2022/09/10 05:34:48;;;;;;;32.22;22.85;;;15.80;99.90;;;;;;4987821;28;20075;-60
2022/09/10 05:37:17;;;;;;;34.15;23.65;;;15.90;99.90;;;;;;5018583;28;20159;-62
2022/09/10 05:39:45;;;;;;;33.70;22.73;;;15.90;99.90;;;;;;5021854;28;20049;-61
2022/09/10 05:42:10;;;;;;;33.85;22.73;;;15.90;99.90;;;;;;5017602;28;20048;-63
2022/09/10 05:44:36;;;;;;;30.50;22.92;;;15.90;99.90;;;;;;5021617;28;20052;-63
2022/09/10 05:47:02;;;;;;;35.22;22.67;;;15.90;99.90;;;;;;5020063;28;20479;-62
2022/09/10 05:49:29;;;;;;;29.10;21.75;;;15.90;99.90;;;;;;5019378;28;20060;-61
2022/09/10 05:51:56;;;;;;;29.45;22.60;;;15.90;99.90;;;;;;4979174;28;20075;-63
2022/09/10 05:54:22;;;;;;;31.23;23.15;;;16.00;99.90;;;;;;5018069;28;20114;-63
2022/09/10 05:56:48;;;;;;;32.42;22.27;;;16.00;99.90;;;;;;5012654;28;20040;-63
2022/09/10 05:59:14;;;;;;;32.15;22.10;;;16.00;99.90;;;;;;5017718;28;20044;-63
2022/09/10 06:01:40;;;;;;;36.08;21.88;;;16.00;99.90;;;;;;5022456;28;20621;-61
2022/09/10 06:04:05;;;;;;;31.00;21.88;;;16.00;99.90;;;;;;5019977;28;20041;-60
2022/09/10 06:06:31;;;;;;;33.47;21.83;;;16.00;99.90;;;;;;5036070;28;20052;-61
2022/09/10 06:08:57;;;;;;;27.52;21.13;;;16.00;99.90;;;;;;5016435;28;20479;-61
2022/09/10 06:11:23;;;;;;;30.67;20.40;;;16.10;99.90;;;;;;5034563;28;20098;-62
2022/09/10 06:13:49;;;;;;;27.83;20.40;;;16.10;99.90;;;;;;5038869;28;20045;-60
2022/09/10 06:16:15;;;;;;;31.17;21.13;;;16.10;99.90;;;;;;5028910;28;20051;-61
2022/09/10 06:18:43;;;;;;;29.63;20.92;;;16.20;99.90;;;;;;5026491;28;20544;-60
2022/09/10 06:21:14;;;;;;;26.35;20.23;;;16.20;99.90;;;;;;5038393;28;20040;-61
2022/09/10 06:23:41;;;;;;;31.77;19.38;;;16.20;99.90;;;;;;5041667;28;21131;-61
2022/09/10 06:26:13;;;;;;;28.98;21.30;;;16.30;99.90;;;;;;5024596;28;20076;-60
2022/09/10 06:28:39;;;;;;;29.48;19.75;;;16.30;99.90;;;;;;5039776;28;20495;-60
2022/09/10 06:31:06;;;;;;;24.90;18.13;;;16.30;99.90;;;;;;5040122;28;20128;-60
2022/09/10 06:33:33;;;;;;;31.65;19.92;;;16.30;99.90;;;;;;5038966;28;20072;-61
2022/09/10 06:36:00;;;;;;;28.42;19.38;;;16.30;99.90;;;;;;5040642;28;20151;-60
2022/09/10 06:38:32;;;;;;;28.33;19.20;;;16.40;99.90;;;;;;5037364;28;20080;-60
2022/09/10 06:41:01;;;;;;;30.98;20.15;;;16.30;99.90;;;;;;5029277;28;20044;-61
2022/09/10 06:43:31;;;;;;;25.92;19.20;;;16.40;99.90;;;;;;5005770;28;20541;-61
2022/09/10 06:45:57;;;;;;;31.63;20.15;;;16.40;99.90;;;;;;5021676;28;20103;-61
2022/09/10 06:48:27;;;;;;;29.63;19.42;;;16.30;99.90;;;;;;5042671;28;20094;-60
2022/09/10 06:51:00;;;;;;;33.72;20.23;;;16.40;99.90;;;;;;5020865;28;20041;-61
2022/09/10 06:53:28;;;;;;;24.52;19.35;;;16.40;99.90;;;;;;5011132;28;20048;-60
2022/09/10 06:55:55;;;;;;;29.50;19.77;;;16.40;99.90;;;;;;5040480;28;20041;-60
2022/09/10 06:58:23;;;;;;;29.75;19.23;;;16.50;99.90;;;;;;5020533;28;20051;-60
2022/09/10 07:00:50;;;;;;;27.98;19.27;;;16.50;99.90;;;;;;5021485;28;20127;-60
2022/09/10 07:03:20;;;;;;;26.23;18.42;;;16.50;99.90;;;;;;5041621;28;20048;-61
2022/09/10 07:05:47;;;;;;;26.50;18.27;;;16.50;99.90;;;;;;5013985;28;20059;-61
2022/09/10 07:08:19;;;;;;;29.17;18.77;;;16.50;99.90;;;;;;5018711;28;20048;-61
2022/09/10 07:10:45;;;;;;;26.33;18.50;;;16.60;99.90;;;;;;5026842;28;20502;-60
2022/09/10 07:13:12;;;;;;;28.98;18.83;;;16.60;99.90;;;;;;5040719;28;20119;-61
2022/09/10 07:15:45;;;;;;;23.88;17.70;;;16.60;99.90;;;;;;5043870;28;20449;-61
2022/09/10 07:18:15;;;;;;;27.52;18.92;;;16.60;99.90;;;;;;5025271;28;20067;-61
2022/09/10 07:20:42;;;;;;;28.25;19.10;;;16.60;99.90;;;;;;5028778;28;20045;-59
2022/09/10 07:23:10;;;;;;;24.75;18.60;;;16.70;99.90;;;;;;5033566;28;20170;-60
2022/09/10 07:25:37;;;;;;;27.27;19.85;;;16.70;99.90;;;;;;5019523;28;20056;-61
2022/09/10 07:28:03;;;;;;;25.33;17.85;;;16.70;99.90;;;;;;5043516;28;20603;-60
2022/09/10 07:30:29;;;;;;;23.83;17.17;;;16.70;99.90;;;;;;5044200;28;20586;-60
2022/09/10 07:32:55;;;;;;;24.33;17.85;;;16.80;99.90;;;;;;5042360;28;20055;-61
2022/09/10 07:35:21;;;;;;;24.52;18.10;;;16.80;99.90;;;;;;5026739;28;20045;-60
2022/09/10 07:37:47;;;;;;;27.52;19.13;;;16.80;99.90;;;;;;5043279;28;20045;-61
2022/09/10 07:40:14;;;;;;;24.23;17.63;;;16.70;99.90;;;;;;4992116;28;20159;-60
2022/09/10 07:42:41;;;;;;;27.23;18.77;;;16.80;99.90;;;;;;5024479;28;20080;-61
2022/09/10 07:45:12;;;;;;;29.17;17.40;;;16.80;99.90;;;;;;5033582;28;20893;-61
2022/09/10 07:47:39;;;;;;;23.95;17.38;;;16.80;99.90;;;;;;5023364;28;20056;-60
2022/09/10 07:50:06;;;;;;;25.60;17.80;;;16.90;99.90;;;;;;5032767;28;20052;-60
2022/09/10 07:52:33;;;;;;;23.60;17.30;;;16.90;99.90;;;;;;5042192;28;20471;-60
2022/09/10 07:54:59;;;;;;;23.85;17.02;;;16.90;99.90;;;;;;5042445;28;20466;-61
2022/09/10 07:57:25;;;;;;;24.55;17.48;;;16.90;99.90;;;;;;5012988;28;20059;-60
2022/09/10 07:59:52;;;;;;;25.80;17.70;;;17.00;99.90;;;;;;5008733;28;20053;-60
2022/09/10 08:02:19;;;;;;;22.33;16.63;;;17.00;99.90;;;;;;5043340;28;20048;-61
2022/09/10 08:04:45;;;;;;;21.65;16.05;;;17.10;99.90;;;;;;5025730;28;20165;-60
2022/09/10 08:07:12;;;;;;;23.02;16.15;;;17.20;99.90;;;;;;5043838;28;20502;-60
2022/09/10 08:09:38;;;;;;;27.90;17.38;;;17.20;99.90;;;;;;5023002;28;20044;-60
2022/09/10 08:12:06;;;;;;;24.63;17.10;;;17.30;99.90;;;;;;5041710;28;20071;-60
2022/09/10 08:14:32;;;;;;;24.77;16.52;;;17.30;99.90;;;;;;5024507;28;20045;-61
2022/09/10 08:16:58;;;;;;;25.27;16.98;;;17.30;99.90;;;;;;5043409;28;20102;-61
2022/09/10 08:19:24;;;;;;;26.38;15.77;;;17.30;99.90;;;;;;5042602;28;20133;-60
2022/09/10 08:21:50;;;;;;;25.25;15.95;;;17.30;99.90;;;;;;5025708;28;20083;-60
2022/09/10 08:24:15;;;;;;;24.50;16.40;;;17.30;99.90;;;;;;5040197;28;20037;-62
2022/09/10 08:26:41;;;;;;;20.60;15.40;;;17.30;99.90;;;;;;5044582;28;20049;-59
2022/09/10 08:29:07;;;;;;;24.75;15.68;;;17.30;99.90;;;;;;5043006;28;20044;-61
2022/09/10 08:31:33;;;;;;;25.90;17.00;;;17.30;99.90;;;;;;5029095;28;20134;-61
2022/09/10 08:34:00;;;;;;;25.75;16.90;;;17.40;99.90;;;;;;5014921;28;20045;-60
2022/09/10 08:36:26;;;;;;;24.15;16.13;;;17.40;99.90;;;;;;5037005;28;20048;-61
2022/09/10 08:38:53;;;;;;;23.58;16.20;;;17.40;99.90;;;;;;5031980;28;20510;-60
2022/09/10 08:41:40;;;;;;;22.58;16.17;;;17.40;99.90;;;;;;5042073;28;20048;-61
2022/09/10 08:44:09;;;;;;;21.77;15.35;;;17.40;99.90;;;;;;5007923;28;20044;-60
2022/09/10 08:46:48;;;;;;;22.73;15.68;;;17.50;99.90;;;;;;5021363;28;20055;-61
2022/09/10 08:49:26;;;;;;;24.40;16.73;;;17.50;99.90;;;;;;5006511;28;20558;-60
2022/09/10 08:52:02;;;;;;;19.45;14.70;;;17.50;99.90;;;;;;5035290;28;20044;-62
2022/09/10 08:54:42;;;;;;;23.27;15.57;;;17.50;99.90;;;;;;5037022;28;20515;-62
2022/09/10 08:57:21;;;;;;;23.20;15.23;;;17.50;99.90;;;;;;5042881;28;20079;-62
2022/09/10 08:59:51;;;;;;;27.80;16.50;;;17.50;99.90;;;;;;5037769;28;20044;-62
2022/09/10 09:02:24;;;;;;;23.63;16.30;;;17.50;99.90;;;;;;5030065;28;20049;-62
2022/09/10 09:04:58;;;;;;;22.35;15.88;;;17.60;99.90;;;;;;5048399;28;20044;-62
2022/09/10 09:07:29;;;;;;;25.00;16.20;;;17.50;99.90;;;;;;5027206;28;20075;-62
2022/09/10 09:09:55;;;;;;;23.17;14.82;;;17.60;99.90;;;;;;5019603;28;20628;-62
2022/09/10 09:12:37;;;;;;;23.52;15.32;;;17.60;99.90;;;;;;5035779;28;20040;-62
2022/09/10 09:15:10;;;;;;;21.52;14.55;;;17.60;99.90;;;;;;5028310;28;20041;-62
2022/09/10 09:17:58;;;;;;;23.17;14.90;;;17.60;99.90;;;;;;5018871;28;20055;-62
2022/09/10 09:20:43;;;;;;;23.75;15.60;;;17.70;99.90;;;;;;5021708;28;20063;-62
2022/09/10 09:23:43;;;;;;;21.42;15.15;;;17.70;99.90;;;;;;5002879;28;20057;-63
2022/09/10 09:26:12;;;;;;;25.35;16.58;;;17.80;99.90;;;;;;5003510;28;20052;-63
2022/09/10 09:28:59;;;;;;;26.58;16.58;;;17.70;99.90;;;;;;5018583;28;20062;-62
2022/09/10 09:31:31;;;;;;;22.50;16.10;;;17.80;99.90;;;;;;5016741;28;20136;-63
2022/09/10 09:34:06;;;;;;;24.33;16.13;;;17.80;99.90;;;;;;5034210;28;20053;-62
2022/09/10 09:36:38;;;;;;;25.42;15.73;;;17.70;99.90;;;;;;5036120;28;20048;-62
2022/09/10 09:39:19;;;;;;;25.30;15.98;;;17.90;99.90;;;;;;5041167;28;20571;-62
2022/09/10 09:42:03;;;;;;;27.40;16.17;;;17.90;99.90;;;;;;5019658;28;20048;-62
2022/09/10 09:44:54;;;;;;;25.50;15.80;;;17.90;99.90;;;;;;5043506;28;20079;-62
2022/09/10 09:47:20;;;;;;;24.60;15.15;;;17.90;99.90;;;;;;5007986;28;20460;-62
2022/09/10 09:49:45;;;;;;;23.27;16.38;;;17.90;99.90;;;;;;5017801;28;20060;-62
2022/09/10 09:52:21;;;;;;;25.10;15.35;;;17.90;99.90;;;;;;5032172;28;20121;-62
2022/09/10 09:55:06;;;;;;;23.80;15.48;;;17.90;99.90;;;;;;5029819;28;20150;-62
2022/09/10 09:57:32;;;;;;;20.95;14.90;;;17.90;99.90;;;;;;5035213;28;20056;-62
2022/09/10 10:00:32;;;;;;;20.50;14.20;;;17.90;99.90;;;;;;5021150;28;20041;-62
2022/09/10 10:03:23;;;;;;;19.48;13.93;;;17.90;99.90;;;;;;5021822;28;20099;-62
2022/09/10 10:05:49;;;;;;;21.23;14.50;;;18.00;99.90;;;;;;5016614;28;20716;-62
2022/09/10 10:08:32;;;;;;;20.63;14.60;;;18.10;99.90;;;;;;5039577;28;20044;-62
2022/09/10 10:10:58;;;;;;;21.42;14.88;;;18.10;99.90;;;;;;5035402;28;20052;-62
2022/09/10 10:13:33;;;;;;;22.58;14.05;;;18.20;99.90;;;;;;5005546;28;20047;-62
2022/09/10 10:16:19;;;;;;;21.08;13.88;;;18.30;99.90;;;;;;5037274;28;20492;-61
2022/09/10 10:18:45;;;;;;;19.55;13.43;;;18.40;99.90;;;;;;5037641;28;20044;-62
2022/09/10 10:21:17;;;;;;;24.75;13.80;;;18.50;99.90;;;;;;5039354;28;20103;-61
2022/09/10 10:23:43;;;;;;;21.30;13.97;;;18.50;99.90;;;;;;5040276;28;20047;-61
2022/09/10 10:26:31;;;;;;;17.33;12.55;;;18.60;99.90;;;;;;5039437;28;20076;-61
2022/09/10 10:29:05;;;;;;;17.73;13.27;;;18.60;99.90;;;;;;5021819;28;20135;-61
2022/09/10 10:31:44;;;;;;;23.60;14.32;;;18.70;99.90;;;;;;5037770;28;20060;-61
2022/09/10 10:34:15;;;;;;;20.77;14.23;;;18.80;99.90;;;;;;5039018;28;20136;-61
2022/09/10 10:36:59;;;;;;;23.35;13.00;;;18.80;99.90;;;;;;5016513;28;20048;-61
2022/09/10 10:39:36;;;;;;;19.58;12.98;;;18.80;99.90;;;;;;5024574;28;20079;-60
2022/09/10 10:42:20;;;;;;;20.40;12.50;;;18.80;99.90;;;;;;5000142;28;20048;-61
2022/09/10 10:45:04;;;;;;;21.67;12.75;;;18.80;99.90;;;;;;5021778;28;20037;-60
2022/09/10 10:47:32;;;;;;;18.90;12.23;;;18.90;99.90;;;;;;5034770;28;20396;-60
2022/09/10 10:50:10;;;;;;;24.15;13.40;;;19.00;99.90;;;;;;5031904;28;20052;-60
2022/09/10 10:53:10;;;;;;;17.45;11.80;;;19.00;99.90;;;;;;5017605;28;20066;-61
2022/09/10 10:55:46;;;;;;;19.45;12.57;;;19.00;99.90;;;;;;5023999;28;20063;-61
2022/09/10 10:58:49;;;;;;;16.88;12.35;;;19.10;99.90;;;;;;5041021;28;20159;-60
2022/09/10 11:01:22;;;;;;;17.77;12.43;;;19.10;99.90;;;;;;4996206;28;20036;-60
2022/09/10 11:04:09;;;;;;;23.05;13.52;;;19.20;99.90;;;;;;5041405;28;20048;-61
2022/09/10 11:06:41;;;;;;;18.85;12.77;;;19.20;99.90;;;;;;5017565;28;20138;-62
2022/09/10 11:09:41;;;;;;;19.52;12.25;;;19.30;99.90;;;;;;5042267;28;20048;-60
2022/09/10 11:12:13;;;;;;;19.10;12.65;;;19.40;99.90;;;;;;5034832;28;20529;-60
2022/09/10 11:14:42;;;;;;;17.25;13.10;;;19.40;99.90;;;;;;5039666;28;20134;-60
2022/09/10 11:17:21;;;;;;;17.40;13.07;;;19.50;99.90;;;;;;5021982;28;20040;-61
2022/09/10 11:19:53;;;;;;;15.77;12.00;;;19.50;99.90;;;;;;5018625;28;20495;-60
2022/09/10 11:22:24;;;;;;;14.63;11.95;;;19.50;99.90;;;;;;4981905;28;20555;-61
2022/09/10 11:24:56;;;;;;;17.75;12.13;;;19.50;99.90;;;;;;5027246;28;20055;-61
2022/09/10 11:27:28;;;;;;;18.30;12.63;;;19.60;99.90;;;;;;5030751;28;20056;-60
2022/09/10 11:30:01;;;;;;;14.90;12.02;;;19.70;99.90;;;;;;5028164;28;20132;-60
2022/09/10 11:32:38;;;;;;;17.02;12.13;;;19.70;99.90;;;;;;5024005;28;20045;-59
2022/09/10 11:35:20;;;;;;;22.52;15.02;;;19.80;99.90;;;;;;5025389;28;20052;-61
2022/09/10 11:38:10;;;;;;;19.52;13.60;;;19.90;99.90;;;;;;5028263;28;20755;-59
2022/09/10 11:41:01;;;;;;;18.60;13.05;;;19.80;99.90;;;;;;5019932;28;20056;-60
2022/09/10 11:43:42;;;;;;;18.15;11.90;;;19.80;99.90;;;;;;5024233;28;20080;-60
2022/09/10 11:46:17;;;;;;;17.40;11.63;;;19.80;99.90;;;;;;5032243;28;20099;-59
2022/09/10 11:48:50;;;;;;;14.70;10.88;;;19.90;99.90;;;;;;5015292;28;20057;-60
2022/09/10 11:51:29;;;;;;;14.88;11.10;;;19.90;99.90;;;;;;5022529;28;20077;-60
2022/09/10 11:53:55;;;;;;;15.65;10.35;;;20.00;99.90;;;;;;5038335;28;20055;-58
2022/09/10 11:56:33;;;;;;;17.13;11.63;;;20.10;99.90;;;;;;5023386;28;20179;-59
2022/09/10 11:59:14;;;;;;;13.80;10.50;;;20.20;99.90;;;;;;5023352;28;20041;-60
2022/09/10 12:02:01;;;;;;;14.60;9.90;;;20.30;99.90;;;;;;5027004;28;20151;-60
2022/09/10 12:04:42;;;;;;;14.93;9.95;;;20.30;99.90;;;;;;5025867;28;20480;-59
2022/09/10 12:07:36;;;;;;;15.32;10.25;;;20.40;99.90;;;;;;5025799;28;20128;-60
2022/09/10 12:10:14;;;;;;;15.70;10.43;;;20.70;99.90;;;;;;5029210;28;20632;-59
2022/09/10 12:12:43;;;;;;;16.73;10.38;;;20.90;99.90;;;;;;5031292;28;20053;-60
2022/09/10 12:15:18;;;;;;;14.05;10.20;;;21.00;99.90;;;;;;5034854;28;20103;-58
2022/09/10 12:17:53;;;;;;;11.05;8.95;;;21.10;99.90;;;;;;5030794;28;20153;-59
2022/09/10 12:20:36;;;;;;;11.82;9.07;;;21.10;99.90;;;;;;5029711;28;20552;-59
2022/09/10 12:23:02;;;;;;;;;;;21.20;99.90;;;;;;5026017;28;20044;-62
2022/09/10 12:25:30;;;;;;;13.07;9.05;;;21.20;99.90;;;;;;5029283;28;20256;-62
2022/09/10 12:27:59;;;;;;;12.55;9.13;;;21.30;99.90;;;;;;5025506;28;21368;-62
2022/09/10 12:30:32;;;;;;;12.15;8.60;;;21.60;99.90;;;;;;5028206;28;20045;-62
2022/09/10 12:33:23;;;;;;;11.07;8.38;;;21.70;99.90;;;;;;5028968;28;20049;-62
2022/09/10 12:35:50;;;;;;;11.95;8.95;;;21.70;99.90;;;;;;5024269;28;20370;-62
2022/09/10 12:39:02;;;;;;;11.20;8.60;;;21.60;99.90;;;;;;5023924;28;20051;-62
2022/09/10 12:41:27;;;;;;;13.35;8.20;;;21.50;99.90;;;;;;5005821;28;20056;-60
2022/09/10 12:43:59;;;;;;;11.20;7.30;;;21.50;99.90;;;;;;5026321;28;20037;-60
2022/09/10 12:46:25;;;;;;;9.40;6.95;;;21.60;99.90;;;;;;5018944;28;20501;-60
2022/09/10 12:48:54;;;;;;;8.75;7.40;;;21.70;99.90;;;;;;5031346;28;20412;-61